Time;durP1;ratioP1;P1;durP2;ratioP2;P2;SDS_P1;SDS_P2;PMS_P1;PMS_P2;Temp;Humidity;BMP_temperature;BMP_pressure;BME280_temperature;BME280_humidity;BME280_pressure;Samples;Min_cycle;Max_cycle;Signal;HPM_P1;HPM_P2
2023/02/23 00:02:06;;;;;;;38.63;27.80;;;8.80;99.90;;;8.25;100.00;97405.19;5041309;28;20128;-63
2023/02/23 00:04:34;;;;;;;40.03;26.60;;;8.80;99.90;;;8.40;100.00;97398.66;5044335;28;20127;-64
2023/02/23 00:07:02;;;;;;;46.30;29.35;;;8.80;99.90;;;8.20;100.00;97395.03;5043982;28;20045;-63
2023/02/23 00:09:34;;;;;;;34.13;25.83;;;8.80;99.90;;;8.38;100.00;97396.09;5043465;28;20103;-63
2023/02/23 00:12:07;;;;;;;36.72;26.25;;;8.80;99.90;;;8.41;100.00;97397.75;5043267;28;20048;-63
2023/02/23 00:14:36;;;;;;;38.53;26.33;;;8.90;99.90;;;8.41;100.00;97392.59;5042803;28;20879;-63
2023/02/23 00:17:13;;;;;;;35.67;25.80;;;8.90;99.90;;;8.50;100.00;97392.25;5044833;28;20045;-63
2023/02/23 00:19:42;;;;;;;35.95;25.42;;;8.90;99.90;;;8.50;100.00;97385.31;5040773;28;20132;-63
2023/02/23 00:22:10;;;;;;;36.75;25.33;;;8.90;99.90;;;8.51;100.00;97391.38;5043350;28;20171;-63
2023/02/23 00:24:39;;;;;;;37.60;25.30;;;8.90;99.90;;;8.34;100.00;97386.75;5041714;28;20041;-64
2023/02/23 00:27:06;;;;;;;35.97;25.58;;;8.90;99.90;;;8.41;100.00;97384.84;5044068;28;20144;-63
2023/02/23 00:29:38;;;;;;;42.05;26.88;;;8.80;99.90;;;8.38;100.00;97383.16;5038521;28;20131;-63
2023/02/23 00:32:05;;;;;;;39.60;23.83;;;8.80;99.90;;;8.41;100.00;97383.06;5059027;28;20047;-63
2023/02/23 00:34:34;;;;;;;41.72;26.42;;;8.70;99.90;;;8.31;100.00;97385.13;5040409;28;20471;-63
2023/02/23 00:37:01;;;;;;;39.05;27.23;;;8.80;99.90;;;8.33;100.00;97382.50;5044466;28;20044;-63
2023/02/23 00:39:28;;;;;;;34.95;24.17;;;8.70;99.90;;;8.35;100.00;97381.53;5042554;28;20131;-63
2023/02/23 00:42:01;;;;;;;31.33;22.35;;;8.80;99.90;;;8.29;100.00;97383.50;5039885;28;20049;-63
2023/02/23 00:44:29;;;;;;;36.80;22.40;;;8.80;99.90;;;8.32;100.00;97376.47;5073090;28;20053;-63
2023/02/23 00:46:56;;;;;;;36.17;24.05;;;8.70;99.90;;;8.27;100.00;97382.72;5044327;28;20075;-63
2023/02/23 00:49:23;;;;;;;31.83;22.20;;;8.80;99.90;;;8.25;100.00;97381.94;5042742;28;20061;-63
2023/02/23 00:51:51;;;;;;;31.63;21.15;;;8.80;99.90;;;8.21;100.00;97383.81;5038064;28;20147;-63
2023/02/23 00:54:20;;;;;;;32.47;23.85;;;8.80;99.90;;;8.14;100.00;97382.31;5043739;28;20393;-64
2023/02/23 00:56:48;;;;;;;27.73;20.70;;;8.80;99.90;;;8.16;100.00;97375.34;5036842;28;20531;-64
2023/02/23 00:59:15;;;;;;;28.52;19.33;;;8.80;99.90;;;8.18;100.00;97389.91;5037413;28;20048;-64
2023/02/23 01:01:43;;;;;;;34.72;21.60;;;8.70;99.90;;;8.22;100.00;97379.47;5040964;28;20422;-64
2023/02/23 01:04:12;;;;;;;30.02;20.63;;;8.70;99.90;;;8.23;100.00;97387.16;5043688;28;20175;-64
2023/02/23 01:06:41;;;;;;;34.45;20.83;;;8.70;99.90;;;8.21;100.00;97377.75;5040876;28;20055;-64
2023/02/23 01:09:12;;;;;;;34.63;23.48;;;8.70;99.90;;;8.26;100.00;97375.88;5044777;28;20087;-64
2023/02/23 01:11:40;;;;;;;40.25;24.67;;;8.70;99.90;;;8.19;100.00;97375.25;5036151;28;20061;-63
2023/02/23 01:14:09;;;;;;;38.17;25.52;;;8.70;99.90;;;8.24;100.00;97370.75;5042396;28;20080;-63
2023/02/23 01:16:37;;;;;;;35.25;23.77;;;8.80;99.90;;;8.31;100.00;97379.13;5044822;28;20538;-64
2023/02/23 01:19:05;;;;;;;40.47;24.85;;;8.70;99.90;;;8.32;100.00;97378.22;5042249;28;20110;-63
2023/02/23 01:21:36;;;;;;;43.22;27.45;;;8.70;99.90;;;8.23;100.00;97381.97;5077985;28;20756;-64
2023/02/23 01:24:05;;;;;;;36.65;24.83;;;8.70;99.90;;;8.27;100.00;97377.53;5076097;28;20052;-63
2023/02/23 01:26:38;;;;;;;37.40;25.52;;;8.70;99.90;;;8.23;100.00;97376.81;5045557;28;20084;-63
2023/02/23 01:29:11;;;;;;;39.92;25.05;;;8.70;99.90;;;8.29;100.00;97370.59;5044420;28;20045;-63
2023/02/23 01:31:46;;;;;;;41.55;27.25;;;8.70;99.90;;;8.25;100.00;97374.16;5044504;28;20571;-63
2023/02/23 01:34:14;;;;;;;38.45;23.92;;;8.70;99.90;;;8.27;100.00;97370.63;5038714;28;20052;-63
2023/02/23 01:36:43;;;;;;;35.75;23.33;;;8.70;99.90;;;8.16;100.00;97367.59;5045178;28;20133;-63
2023/02/23 01:39:15;;;;;;;36.30;21.92;;;8.70;99.90;;;8.23;100.00;97373.38;5044802;28;20154;-63
2023/02/23 01:41:43;;;;;;;38.28;25.88;;;8.60;99.90;;;8.07;100.00;97366.16;5045105;28;20098;-63
2023/02/23 01:44:13;;;;;;;34.10;23.27;;;8.70;99.90;;;8.33;100.00;97364.41;5045988;28;20049;-64
2023/02/23 01:46:44;;;;;;;40.65;25.73;;;8.70;99.90;;;8.13;100.00;97363.38;5047788;28;20041;-63
2023/02/23 01:49:20;;;;;;;30.55;21.23;;;8.70;99.90;;;8.16;100.00;97368.47;5045169;28;20049;-63
2023/02/23 01:51:58;;;;;;;41.33;26.80;;;8.70;99.90;;;8.16;100.00;97365.88;5043644;28;20064;-63
2023/02/23 01:54:35;;;;;;;32.42;23.20;;;8.70;99.90;;;8.23;100.00;97368.22;5047187;28;20476;-63
2023/02/23 01:57:06;;;;;;;37.08;24.10;;;8.70;99.90;;;8.15;100.00;97363.34;5042782;28;20044;-64
2023/02/23 01:59:47;;;;;;;40.42;26.60;;;8.70;99.90;;;8.22;100.00;97361.38;5031973;28;20045;-63
2023/02/23 02:02:22;;;;;;;38.42;23.80;;;8.70;99.90;;;8.15;100.00;97365.91;5040657;28;20356;-63
2023/02/23 02:04:50;;;;;;;41.70;25.92;;;8.70;99.90;;;8.11;100.00;97364.34;5029460;28;20057;-63
2023/02/23 02:07:25;;;;;;;40.47;26.00;;;8.60;99.90;;;8.10;100.00;97360.06;5041807;28;20055;-63
2023/02/23 02:10:38;;;;;;;46.50;28.13;;;8.60;99.90;;;8.11;100.00;97360.00;5046684;28;20088;-64
2023/02/23 02:12:50;;;;;;;40.38;26.58;;;8.70;99.90;;;8.12;100.00;97355.69;5042459;28;20240;-63
2023/02/23 02:15:21;;;;;;;41.92;27.48;;;8.60;99.90;;;8.13;100.00;97358.19;5045256;28;20061;-63
2023/02/23 02:18:31;;;;;;;42.92;25.65;;;8.70;99.90;;;8.21;100.00;97350.19;5044280;28;20077;-63
2023/02/23 02:21:17;;;;;;;47.97;28.95;;;8.60;99.90;;;8.12;100.00;97350.53;5053138;28;20053;-63
2023/02/23 02:23:44;;;;;;;47.10;28.05;;;8.60;99.90;;;8.25;100.00;97343.16;5040175;28;20081;-63
2023/02/23 02:26:38;;;;;;;55.28;30.10;;;8.60;99.90;;;8.12;100.00;97341.03;5042894;28;20091;-63
2023/02/23 02:29:36;;;;;;;45.80;25.48;;;8.60;99.90;;;8.14;100.00;97333.19;5045081;28;20653;-63
2023/02/23 02:32:27;;;;;;;47.22;25.50;;;8.60;99.90;;;8.11;100.00;97333.31;5043563;28;20455;-63
2023/02/23 02:35:24;;;;;;;47.28;27.88;;;8.60;99.90;;;8.20;100.00;97329.56;5042177;28;20546;-64
2023/02/23 02:38:20;;;;;;;51.00;28.20;;;8.60;99.90;;;8.18;100.00;97325.25;5045768;28;20045;-63
2023/02/23 02:41:10;;;;;;;63.58;32.10;;;8.60;99.90;;;8.01;100.00;97332.81;5043308;28;20419;-63
2023/02/23 02:44:19;;;;;;;58.72;28.55;;;8.60;99.90;;;8.11;100.00;97330.72;5074369;28;20075;-63
2023/02/23 02:46:54;;;;;;;64.57;30.42;;;8.60;99.90;;;8.01;100.00;97331.97;5057137;28;20164;-64
2023/02/23 02:50:39;;;;;;;52.92;30.40;;;8.60;99.90;;;7.97;100.00;97318.31;5042168;28;20064;-63
2023/02/23 02:53:10;;;;;;;43.08;26.27;;;8.60;99.90;;;7.93;100.00;97322.72;4991926;28;20140;-63
2023/02/23 02:55:42;;;;;;;39.03;24.23;;;8.50;99.90;;;8.02;100.00;97318.97;5044400;28;20053;-63
2023/02/23 02:58:12;;;;;;;42.63;26.85;;;8.60;99.90;;;8.02;100.00;97318.13;5043604;28;20543;-63
2023/02/23 04:18:18;;;;;;;180.80;40.67;;;8.50;99.90;;;7.86;100.00;97299.75;5048574;28;20052;-63
2023/02/23 04:20:45;;;;;;;392.63;65.03;;;8.50;99.90;;;7.70;100.00;97302.06;5035408;28;20060;-64
2023/02/23 04:23:12;;;;;;;321.15;56.58;;;8.50;99.90;;;7.81;100.00;97304.25;5033605;28;20405;-64
2023/02/23 04:25:39;;;;;;;179.85;42.03;;;8.50;99.90;;;7.74;100.00;97312.22;5035812;28;20057;-63
2023/02/23 04:28:06;;;;;;;359.73;60.67;;;8.50;99.90;;;7.69;100.00;97313.28;5033300;28;20045;-64
2023/02/23 04:30:33;;;;;;;376.17;59.20;;;8.40;99.90;;;7.68;100.00;97307.25;5035966;28;20061;-64
2023/02/23 04:33:00;;;;;;;382.55;67.95;;;8.50;99.90;;;7.68;100.00;97315.00;5029924;28;20137;-64
2023/02/23 04:35:30;;;;;;;141.00;40.47;;;8.50;99.90;;;7.71;100.00;97314.09;5036888;28;20045;-64
2023/02/23 04:37:57;;;;;;;189.00;43.08;;;8.40;99.90;;;7.69;100.00;97324.47;5033062;28;20056;-64
2023/02/23 04:40:25;;;;;;;372.27;60.60;;;8.40;99.90;;;7.67;100.00;97330.59;5039062;28;20071;-64
2023/02/23 04:42:54;;;;;;;359.60;63.92;;;8.40;99.90;;;7.74;100.00;97335.47;5034152;28;20041;-64
2023/02/23 04:45:23;;;;;;;117.88;37.70;;;8.40;99.90;;;7.83;100.00;97336.91;5035595;28;20052;-64
2023/02/23 04:47:50;;;;;;;179.90;46.08;;;8.40;99.90;;;7.81;100.00;97348.19;5034514;28;20048;-64
2023/02/23 04:50:19;;;;;;;170.55;46.10;;;8.40;99.90;;;7.81;100.00;97337.84;5038663;28;20045;-64
2023/02/23 04:52:46;;;;;;;84.40;35.63;;;8.40;99.90;;;7.79;100.00;97343.06;5034147;28;20045;-64
2023/02/23 04:55:18;;;;;;;68.50;35.08;;;8.30;99.90;;;7.73;100.00;97340.69;5038462;28;20416;-64
2023/02/23 04:57:46;;;;;;;62.33;35.35;;;8.40;99.90;;;7.84;100.00;97335.16;5034438;28;20061;-64
2023/02/23 05:00:14;;;;;;;66.57;36.05;;;8.40;99.90;;;7.76;100.00;97327.69;5031293;28;20540;-64
2023/02/23 05:02:41;;;;;;;71.43;36.55;;;8.50;99.90;;;7.80;100.00;97328.41;5036454;28;20064;-64
2023/02/23 05:05:08;;;;;;;57.33;34.25;;;8.50;99.90;;;7.84;100.00;97320.47;5032225;28;20058;-64
2023/02/23 05:07:36;;;;;;;56.25;35.03;;;8.50;99.90;;;7.84;100.00;97317.91;5035927;28;20104;-64
2023/02/23 05:10:05;;;;;;;52.67;32.28;;;8.50;99.90;;;7.92;100.00;97310.72;5034646;28;20522;-64
2023/02/23 05:12:32;;;;;;;58.72;33.05;;;8.50;99.90;;;7.85;100.00;97298.09;5043524;28;20140;-64
2023/02/23 05:14:59;;;;;;;48.03;30.85;;;8.50;99.90;;;8.00;100.00;97299.25;5032559;28;20131;-64
2023/02/23 05:17:26;;;;;;;54.85;32.92;;;8.50;99.90;;;8.12;100.00;97285.91;5032672;28;20045;-64
2023/02/23 05:19:53;;;;;;;58.17;32.47;;;8.50;99.90;;;8.03;100.00;97287.06;5031166;28;20042;-64
2023/02/23 05:22:21;;;;;;;57.45;32.22;;;8.50;99.90;;;7.97;100.00;97288.13;5034555;28;20064;-64
2023/02/23 05:24:48;;;;;;;51.50;32.65;;;8.50;99.90;;;8.07;100.00;97280.88;5031221;28;20443;-64
2023/02/23 05:27:16;;;;;;;45.25;29.73;;;8.40;99.90;;;8.09;100.00;97288.56;5025355;28;20049;-64
2023/02/23 05:29:43;;;;;;;39.58;26.63;;;8.30;99.90;;;8.02;100.00;97290.53;5031859;28;20121;-64
2023/02/23 05:32:10;;;;;;;43.25;27.30;;;8.30;99.90;;;8.20;100.00;97286.44;5049035;28;20572;-64
2023/02/23 05:34:38;;;;;;;45.00;30.27;;;8.30;99.90;;;7.88;100.00;97296.22;5035055;28;20077;-64
2023/02/23 05:37:05;;;;;;;49.67;31.88;;;8.30;99.90;;;7.88;100.00;97295.38;5035283;28;20049;-64
2023/02/23 05:39:32;;;;;;;56.92;32.70;;;8.20;99.90;;;7.92;100.00;97296.97;5038330;28;20192;-64
2023/02/23 05:41:59;;;;;;;57.25;31.85;;;8.20;99.90;;;7.92;100.00;97296.97;5031549;28;20135;-64
2023/02/23 05:44:26;;;;;;;43.55;28.95;;;8.20;99.90;;;7.88;100.00;97292.78;5032372;28;21554;-64
2023/02/23 05:46:53;;;;;;;42.70;29.25;;;8.10;99.90;;;7.83;100.00;97303.31;5031481;28;20053;-64
2023/02/23 05:49:21;;;;;;;59.83;35.78;;;8.20;99.90;;;7.78;100.00;97301.75;5033487;28;20080;-64
2023/02/23 05:51:48;;;;;;;56.45;33.05;;;8.20;99.90;;;7.74;100.00;97301.88;5035536;28;20045;-64
2023/02/23 05:54:15;;;;;;;61.47;35.15;;;8.20;99.90;;;7.74;100.00;97307.06;5032622;28;20047;-64
2023/02/23 05:56:42;;;;;;;61.08;35.15;;;8.20;99.90;;;7.76;100.00;97304.44;5038487;28;20141;-64
2023/02/23 05:59:09;;;;;;;49.45;32.60;;;8.20;99.90;;;7.81;100.00;97307.69;5029621;28;20416;-64
2023/02/23 06:01:36;;;;;;;63.65;35.60;;;8.20;99.90;;;7.67;100.00;97308.16;5034535;28;20052;-64
2023/02/23 06:04:04;;;;;;;64.50;36.95;;;8.20;99.90;;;7.66;100.00;97306.50;5030836;28;20049;-63
2023/02/23 06:06:32;;;;;;;58.08;33.75;;;8.20;99.90;;;7.69;100.00;97305.53;5033095;28;20561;-63
2023/02/23 06:08:59;;;;;;;56.30;33.15;;;8.10;99.90;;;7.70;100.00;97307.22;5036838;28;20091;-63
2023/02/23 06:11:26;;;;;;;56.92;32.58;;;8.10;99.90;;;7.69;100.00;97311.53;5032575;28;20045;-64
2023/02/23 06:13:53;;;;;;;56.95;34.15;;;8.00;99.90;;;7.63;100.00;97309.16;5034757;28;20060;-63
2023/02/23 06:16:20;;;;;;;60.83;35.05;;;7.90;99.90;;;7.62;100.00;97314.38;5036893;28;20120;-64
2023/02/23 06:18:47;;;;;;;52.63;33.83;;;7.90;99.90;;;7.53;100.00;97303.50;5037245;28;20542;-65
2023/02/23 06:21:14;;;;;;;59.47;34.58;;;7.90;99.90;;;7.54;100.00;97317.25;5036932;28;20049;-63
2023/02/23 06:23:42;;;;;;;49.25;31.50;;;7.90;99.90;;;7.59;100.00;97317.91;5033286;28;20064;-64
2023/02/23 06:26:09;;;;;;;59.38;35.17;;;7.90;99.90;;;7.48;100.00;97317.44;5033045;28;20057;-63
2023/02/23 06:28:36;;;;;;;56.65;34.00;;;7.80;99.90;;;7.42;100.00;97323.69;5034367;28;20059;-63
2023/02/23 06:31:03;;;;;;;79.70;40.60;;;7.80;99.90;;;7.22;100.00;97320.91;5031665;28;20144;-64
2023/02/23 06:33:30;;;;;;;69.15;37.42;;;7.80;99.90;;;7.27;100.00;97332.75;5039348;28;20046;-64
2023/02/23 06:35:57;;;;;;;48.90;30.42;;;7.80;99.90;;;7.40;100.00;97329.78;5030708;28;20042;-64
2023/02/23 06:38:24;;;;;;;39.53;27.02;;;7.70;99.90;;;7.42;100.00;97338.34;5032907;28;20049;-64
2023/02/23 06:40:51;;;;;;;48.10;30.70;;;7.70;99.90;;;7.27;100.00;97337.09;5035398;28;20045;-64
2023/02/23 06:43:18;;;;;;;43.25;28.73;;;7.70;99.90;;;7.35;100.00;97334.28;5033008;28;20045;-64
2023/02/23 06:45:50;;;;;;;57.72;29.33;;;7.60;99.90;;;6.96;100.00;97340.69;5034144;28;20053;-64
2023/02/23 06:48:17;;;;;;;50.08;29.92;;;7.50;99.90;;;6.89;100.00;97344.34;5034675;28;20061;-64
2023/02/23 06:50:44;;;;;;;56.42;32.13;;;7.30;99.90;;;6.89;100.00;97339.19;5031071;28;20053;-64
2023/02/23 06:53:11;;;;;;;63.80;35.92;;;7.30;99.90;;;7.02;100.00;97337.88;5034467;28;20071;-64
2023/02/23 06:55:38;;;;;;;54.80;30.40;;;7.40;99.90;;;7.08;100.00;97353.19;5033297;28;20136;-64
2023/02/23 06:58:06;;;;;;;56.00;31.65;;;7.40;99.90;;;7.06;100.00;97349.81;5042957;28;20144;-64
2023/02/23 07:00:34;;;;;;;78.78;42.75;;;7.50;99.90;;;6.93;100.00;97352.81;5035697;28;20060;-64
2023/02/23 07:03:01;;;;;;;60.20;36.47;;;7.60;99.90;;;6.97;100.00;97359.59;5030937;28;20051;-64
2023/02/23 07:05:28;;;;;;;61.08;36.00;;;7.70;99.90;;;7.11;100.00;97368.56;5030397;28;20055;-65
2023/02/23 07:07:55;;;;;;;75.53;42.47;;;7.80;99.90;;;7.18;100.00;97376.13;5036677;28;20048;-63
2023/02/23 07:10:22;;;;;;;71.90;40.95;;;7.90;99.90;;;7.38;100.00;97383.22;5033912;28;20058;-64
2023/02/23 07:12:49;;;;;;;71.38;42.97;;;7.90;99.90;;;7.40;100.00;97384.00;5033820;28;20458;-64
2023/02/23 07:15:19;;;;;;;71.57;43.70;;;8.00;99.90;;;7.45;100.00;97384.69;5034638;28;20045;-64
2023/02/23 07:17:47;;;;;;;77.90;46.58;;;8.00;99.90;;;7.44;100.00;97390.78;5035064;28;20052;-64
2023/02/23 07:20:15;;;;;;;68.03;40.78;;;8.10;99.90;;;7.41;100.00;97396.88;5031768;28;20144;-64
2023/02/23 07:22:41;;;;;;;64.28;39.50;;;8.20;99.90;;;7.55;100.00;97401.59;5036833;28;20512;-64
2023/02/23 07:25:09;;;;;;;61.30;37.90;;;8.20;99.90;;;7.69;100.00;97391.63;5033750;28;20049;-64
2023/02/23 07:27:37;;;;;;;71.30;39.58;;;8.20;99.90;;;7.58;100.00;97398.91;5036619;28;20436;-64
2023/02/23 07:30:05;;;;;;;63.58;38.00;;;8.20;99.90;;;7.48;100.00;97398.38;5031284;28;20061;-64
2023/02/23 07:32:32;;;;;;;62.20;37.47;;;8.20;99.90;;;7.50;100.00;97399.16;5033389;28;20550;-64
2023/02/23 07:34:59;;;;;;;63.95;39.80;;;8.30;99.90;;;7.78;100.00;97392.19;5036663;28;20077;-64
2023/02/23 07:37:26;;;;;;;57.50;37.70;;;8.40;99.90;;;7.90;100.00;97391.78;5034189;28;20044;-64
2023/02/23 07:39:53;;;;;;;52.40;34.90;;;8.50;99.90;;;8.01;100.00;97396.59;5033963;28;20041;-64
2023/02/23 07:42:20;;;;;;;61.17;36.10;;;8.60;99.90;;;7.86;100.00;97391.03;5035990;28;20064;-64
2023/02/23 07:44:47;;;;;;;64.93;38.70;;;8.60;99.90;;;7.62;100.00;97390.16;5034530;28;20076;-64
2023/02/23 07:47:14;;;;;;;64.65;41.05;;;8.70;99.90;;;7.74;100.00;97389.72;5036702;28;20049;-64
2023/02/23 07:49:41;;;;;;;62.95;38.25;;;8.60;99.90;;;7.95;100.00;97385.56;5034357;28;20484;-64
2023/02/23 07:52:08;;;;;;;62.28;39.00;;;8.70;99.90;;;8.34;100.00;97374.66;5032395;28;20120;-64
2023/02/23 07:54:35;;;;;;;60.13;39.42;;;8.80;99.90;;;8.44;100.00;97379.53;5035407;28;20088;-64
2023/02/23 07:57:02;;;;;;;61.05;41.47;;;9.00;99.90;;;8.44;100.00;97376.94;5036309;28;20053;-64
2023/02/23 07:59:31;;;;;;;59.97;42.45;;;9.10;99.90;;;8.42;100.00;97371.84;5038614;28;20071;-64
2023/02/23 08:01:58;;;;;;;59.47;42.42;;;9.20;99.90;;;8.61;100.00;97361.66;5036143;28;20068;-64
2023/02/23 08:04:25;;;;;;;52.80;39.20;;;9.20;99.90;;;8.58;100.00;97362.59;5031075;28;20447;-64
2023/02/23 08:06:52;;;;;;;50.22;37.38;;;9.20;99.90;;;8.15;100.00;97371.09;5038863;28;20114;-64
2023/02/23 08:09:19;;;;;;;45.13;34.75;;;9.10;99.90;;;8.07;100.00;97357.59;5041139;28;20045;-64
2023/02/23 08:11:45;;;;;;;50.75;35.60;;;9.00;99.90;;;7.94;100.00;97370.13;5034924;28;20052;-64
2023/02/23 08:14:12;;;;;;;50.03;35.72;;;9.00;99.90;;;8.16;100.00;97378.78;5036595;28;20503;-64
2023/02/23 08:16:39;;;;;;;42.47;30.70;;;9.00;99.90;;;8.33;100.00;97372.16;5039674;28;20064;-64
2023/02/23 08:19:06;;;;;;;42.15;29.50;;;9.10;99.90;;;8.36;100.00;97377.22;5034638;28;20057;-64
2023/02/23 08:21:33;;;;;;;32.83;23.95;;;9.10;99.90;;;7.96;100.00;97381.25;5038881;28;20049;-64
2023/02/23 08:24:00;;;;;;;35.05;25.65;;;9.00;99.90;;;8.12;100.00;97374.63;5038176;28;20069;-64
2023/02/23 08:26:27;;;;;;;34.88;25.05;;;9.00;99.90;;;7.92;100.00;97387.41;5035122;28;20048;-64
2023/02/23 08:28:55;;;;;;;35.05;23.95;;;9.00;99.90;;;7.80;100.00;97387.81;5037608;28;20504;-64
2023/02/23 08:31:22;;;;;;;37.00;25.65;;;9.10;99.90;;;8.07;100.00;97388.59;5037779;28;20081;-64
2023/02/23 08:33:52;;;;;;;45.45;31.38;;;9.20;99.90;;;8.01;100.00;97392.25;5036515;28;20096;-64
2023/02/23 08:36:19;;;;;;;33.35;25.10;;;9.20;99.90;;;8.09;100.00;97390.22;5033505;28;20044;-64
2023/02/23 08:38:47;;;;;;;38.55;27.95;;;9.20;99.90;;;7.90;100.00;97392.63;5037053;28;20439;-64
2023/02/23 08:41:15;;;;;;;34.00;25.15;;;9.10;99.90;;;8.20;100.00;97389.03;5040028;28;20045;-64
2023/02/23 08:43:43;;;;;;;37.83;26.75;;;9.10;99.90;;;8.24;100.00;97398.34;5035036;28;20061;-64
2023/02/23 08:46:10;;;;;;;38.70;27.55;;;9.00;99.90;;;8.48;100.00;97394.03;5040224;28;20527;-64
2023/02/23 08:48:39;;;;;;;40.20;30.83;;;9.10;99.90;;;8.10;100.00;97399.69;5034986;28;20095;-64
2023/02/23 08:51:07;;;;;;;48.22;33.95;;;9.10;99.90;;;8.42;100.00;97391.72;5034858;28;20139;-64
2023/02/23 08:53:35;;;;;;;100.78;66.85;;;9.10;99.90;;;8.25;100.00;97397.44;5037175;28;20057;-64
2023/02/23 08:56:05;;;;;;;57.75;36.88;;;9.20;99.90;;;8.12;100.00;97399.66;5039362;28;20044;-64
2023/02/23 08:58:35;;;;;;;52.33;36.60;;;9.20;99.90;;;8.37;100.00;97397.84;5038966;28;20219;-64
2023/02/23 09:01:03;;;;;;;46.50;35.70;;;9.10;99.90;;;8.37;100.00;97397.00;5043651;28;20064;-64
2023/02/23 09:03:31;;;;;;;48.70;35.83;;;9.20;99.90;;;8.54;100.00;97399.00;5035039;28;20156;-64
2023/02/23 09:06:13;;;;;;;46.55;37.05;;;9.30;99.90;;;8.22;100.00;97406.16;5039760;28;20427;-64
2023/02/23 09:08:40;;;;;;;50.45;39.20;;;9.10;99.90;;;8.07;100.00;97402.38;5017587;28;20072;-64
2023/02/23 09:11:07;;;;;;;46.13;36.53;;;9.10;99.90;;;8.29;100.00;97405.03;5035730;28;20053;-64
2023/02/23 09:13:35;;;;;;;49.20;37.75;;;9.10;99.90;;;8.21;100.00;97398.44;5036292;28;20508;-64
2023/02/23 09:16:02;;;;;;;46.50;35.58;;;9.10;99.90;;;8.57;100.00;97402.28;5038780;28;20036;-64
2023/02/23 09:18:31;;;;;;;48.58;38.28;;;9.10;99.90;;;8.34;100.00;97397.09;5036895;28;20060;-64
2023/02/23 09:20:58;;;;;;;46.67;34.47;;;9.20;99.90;;;8.66;100.00;97395.94;5036506;28;20049;-64
2023/02/23 09:23:28;;;;;;;43.22;34.88;;;9.30;99.90;;;8.84;100.00;97397.00;5024394;28;20110;-64
2023/02/23 09:25:55;;;;;;;45.08;35.30;;;9.40;99.90;;;8.62;100.00;97402.16;5040400;28;20117;-65
2023/02/23 09:28:22;;;;;;;42.53;32.70;;;9.50;99.90;;;8.50;100.00;97402.59;5039293;28;20053;-64
2023/02/23 09:30:49;;;;;;;41.75;33.13;;;9.50;99.90;;;8.40;100.00;97403.81;5039542;28;20044;-64
2023/02/23 09:33:17;;;;;;;42.92;33.50;;;9.50;99.90;;;8.31;100.00;97397.22;5032926;28;20121;-64
2023/02/23 09:35:43;;;;;;;46.17;34.83;;;9.60;99.90;;;8.30;100.00;97405.88;5036269;28;20129;-64
2023/02/23 09:38:10;;;;;;;44.63;34.90;;;9.60;99.90;;;8.55;100.00;97417.06;5041005;28;20157;-62
2023/02/23 09:40:53;;;;;;;41.47;34.75;;;9.70;99.90;;;9.02;100.00;97416.16;5040005;28;20081;-64
2023/02/23 09:43:26;;;;;;;42.20;33.80;;;9.80;99.90;;;9.41;100.00;97413.72;5034221;28;20128;-64
2023/02/23 09:46:19;;;;;;;43.47;35.05;;;10.10;99.90;;;9.73;100.00;97403.78;5035397;28;20104;-64
2023/02/23 09:48:47;;;;;;;48.53;37.15;;;;;;;9.55;100.00;97401.94;5035188;28;20057;-64
2023/02/23 09:51:19;;;;;;;44.30;35.50;;;10.80;99.90;;;9.65;100.00;97392.91;5032858;28;20049;-64
2023/02/23 09:53:50;;;;;;;;;;;10.90;99.90;;;9.74;100.00;97396.84;5032437;28;20056;-64
2023/02/23 09:56:30;;;;;;;41.55;34.60;;;10.90;99.90;;;10.00;100.00;97383.59;5032781;28;19929;-64
2023/02/23 09:58:59;;;;;;;42.85;34.83;;;11.00;99.90;;;10.09;100.00;97391.91;5020577;28;20468;-64
2023/02/23 10:01:47;;;;;;;38.17;32.13;;;11.00;99.90;;;10.45;100.00;97386.88;5032745;28;20128;-64
2023/02/23 10:04:33;;;;;;;43.55;33.97;;;11.20;99.90;;;10.09;100.00;97390.16;5035618;28;20041;-64
2023/02/23 10:07:35;;;;;;;41.15;34.17;;;11.30;99.90;;;9.99;100.00;97396.63;5039715;28;20053;-64
2023/02/23 10:10:39;;;;;;;41.70;32.40;;;11.10;99.90;;;10.28;100.00;97387.56;5034609;28;20118;-64
2023/02/23 10:13:34;;;;;;;40.25;30.60;;;11.20;99.90;;;9.63;100.00;97390.38;5037443;28;20281;-64
2023/02/23 10:16:55;;;;;;;37.20;30.42;;;11.20;99.90;;;9.39;100.00;97393.97;5036458;28;20708;-64
2023/02/23 10:19:34;;;;;;;42.60;33.22;;;11.10;99.90;;;9.62;100.00;97400.78;5017447;28;20049;-64
2023/02/23 10:22:06;;;;;;;38.20;31.42;;;11.10;99.90;;;9.86;100.00;97398.91;5034840;28;20037;-64
2023/02/23 10:24:42;;;;;;;37.50;31.52;;;11.10;99.90;;;10.36;100.00;97389.88;5037538;28;20515;-64
2023/02/23 10:27:16;;;;;;;36.47;29.80;;;11.30;99.90;;;11.06;100.00;97385.75;5032313;28;20292;-64
2023/02/23 10:29:55;;;;;;;38.47;31.58;;;11.80;99.90;;;10.90;100.00;97385.66;5035134;28;20041;-64
2023/02/23 10:32:54;;;;;;;38.25;31.92;;;12.10;99.90;;;10.84;100.00;97378.16;5050092;28;20194;-64
2023/02/23 10:35:22;;;;;;;40.15;29.63;;;12.20;99.90;;;11.04;100.00;97383.25;5037928;28;20049;-64
2023/02/23 10:37:51;;;;;;;34.70;27.85;;;12.40;99.90;;;11.35;100.00;97380.94;5033293;28;20045;-64
2023/02/23 10:40:27;;;;;;;32.80;27.33;;;12.60;99.90;;;11.24;100.00;97379.72;5033834;28;20049;-64
2023/02/23 10:42:57;;;;;;;34.63;29.23;;;12.60;99.90;;;10.53;100.00;97386.53;5033518;28;20049;-64
2023/02/23 10:45:26;;;;;;;34.53;28.73;;;12.30;99.90;;;10.54;100.00;97377.84;5034363;28;20132;-64
2023/02/23 10:48:10;;;;;;;37.38;29.23;;;12.30;99.90;;;10.60;100.00;97386.16;5037527;28;20094;-65
2023/02/23 10:50:39;;;;;;;35.55;28.13;;;12.20;99.90;;;11.42;100.00;97377.13;5020403;28;20080;-65
2023/02/23 10:53:23;;;;;;;31.00;26.70;;;12.40;99.90;;;11.39;100.00;97383.31;5033100;28;20556;-64
2023/02/23 10:56:21;;;;;;;33.25;26.75;;;12.40;99.90;;;11.37;100.00;97381.72;5035206;28;20080;-64
2023/02/23 10:58:57;;;;;;;33.50;27.30;;;12.30;99.90;;;11.78;100.00;97373.59;5028129;28;20041;-64
2023/02/23 11:01:45;;;;;;;31.15;26.35;;;12.40;99.90;;;11.85;100.00;97372.38;5035890;28;20045;-64
2023/02/23 11:04:33;;;;;;;36.00;28.25;;;12.60;99.90;;;11.88;100.00;97367.03;5033502;28;20409;-64
2023/02/23 11:07:22;;;;;;;30.73;24.63;;;12.80;99.90;;;11.80;100.00;97363.97;5023604;28;20111;-66
2023/02/23 11:09:51;;;;;;;33.92;26.63;;;12.90;99.90;;;11.74;100.00;97365.09;5036285;28;20531;-64
2023/02/23 11:12:24;;;;;;;29.58;24.65;;;13.00;99.90;;;11.76;100.00;97363.28;5034475;28;20045;-64
2023/02/23 11:14:55;;;;;;;31.73;26.67;;;13.10;99.90;;;11.64;100.00;97364.75;5031278;28;20871;-66
2023/02/23 11:17:33;;;;;;;32.33;25.55;;;13.00;99.90;;;12.04;100.00;97356.69;5037750;28;20052;-66
2023/02/23 11:20:17;;;;;;;33.92;26.85;;;12.80;99.90;;;10.88;100.00;97369.31;5034217;28;20672;-66
2023/02/23 11:22:44;;;;;;;32.85;25.17;;;12.70;99.90;;;11.24;100.00;97368.47;5029846;28;20500;-66
2023/02/23 11:25:27;;;;;;;34.63;26.77;;;12.50;99.90;;;11.05;100.00;97360.72;5030754;28;20057;-67
2023/02/23 11:27:55;;;;;;;33.92;26.80;;;12.50;99.90;;;11.48;100.00;97361.22;5034014;28;20618;-66
2023/02/23 11:30:33;;;;;;;34.15;28.05;;;12.50;99.90;;;11.55;100.00;97369.56;5034268;28;20073;-66
2023/02/23 11:33:10;;;;;;;33.58;26.98;;;12.50;99.90;;;11.37;100.00;97364.34;5037681;28;20156;-66
2023/02/23 11:35:38;;;;;;;37.53;29.08;;;12.40;99.90;;;11.26;100.00;97366.63;5037019;28;20041;-66
2023/02/23 11:38:26;;;;;;;43.70;30.05;;;12.40;99.90;;;10.71;100.00;97361.47;5032575;28;20845;-66
2023/02/23 11:41:06;;;;;;;37.35;28.25;;;12.40;99.90;;;10.72;100.00;97364.00;5039895;28;20057;-66
2023/02/23 11:43:34;;;;;;;43.45;31.60;;;12.20;99.90;;;10.85;100.00;97359.06;5035671;28;20067;-66
2023/02/23 11:46:02;;;;;;;38.35;30.08;;;12.00;99.90;;;11.24;100.00;97355.47;5036091;28;20084;-66
2023/02/23 11:48:52;;;;;;;43.10;30.27;;;12.10;99.90;;;11.21;100.00;97353.88;5035678;28;20079;-66